Pagrindinis puslapis
METAR-TAF:

METAR-TAF

Oro uostai :

Paderborn Lippstadt, Vokietija

platuma: 51-37N, ilguma: 008-37E, Aukštis: 213 m

Dabartinis oras

Ataskaita buvo paskelbta 29 minutes, ne 09:20 UTC
Vėjas 10 kt iš Šiaurės/Šiaurės Rytų
Temperatūra 15°C
Drėgmė 48%
Slėgis 1024 hPa
Matomumas 10 km arba daugiau
Išsisklaidę debesys ne aukštis 4300 ft

METAR: EDLP 310920Z 03010KT 9999 SCT043 15/04 Q1024

Laikas: 11:49 (09:49 UTC)

Prognozė

Ataskaita buvo paskelbta 3 valandos ir 59 minutes, ne 05:50 UTC
Prognozė galioja nuo 31 metu 06 UTC su 01 metu 06 UTC
Vėjas 4 kt iš Rytų/Šiaurės Rytų
Matomumas 10 km arba daugiau
nėra debesų žemiau 1500 m ir nėra kamuolinių lietaus debesų
Tapsmas
nuo 31 metu 07 UTC su 31 metu 10 UTC
Vėjas 10 kt iš Rytų/Šiaurės Rytų
Tapsmas
nuo 31 metu 17 UTC su 31 metu 20 UTC
Vėjas 4 kt iš Rytų

TAF: EDLP 310550Z 3106/0106 06004KT CAVOK BECMG 3107/3110 07010KT BECMG 3117/3120 10004KT

Orai ataskaitas ir orų prognozės (METAR, TAF).

turimą stotys yra geltonos ir raudonos taškus žemėlapyje.

Perkelti pele per norėdami pamatyti stoties vardą.

Tada spustelėkite, norėdami matyti oro stebėjimo ir prognozės.

Norėdami pakeisti žemėlapį: spustelėkite ant žalios mygtukų su juodo kryžiaus žemyn,; žalią mygtuką su brūkšneliu, jei norite nutolinti; arba žalių rodyklių gretimoms žemėlapius.


METAR-TAF: